Olinghouse, Nevada
Current Conditions -  °F | °C
As of 6:55 PM on Thursday 27 Nov 2014 (Local Time) from KRNO Reporting Station
Few Clouds Few Clouds  
Wind Chill: 55°   Ceiling: Unl
Heat Index: 55°   Visibility: 10mi
Dew Point: 15°   Wind: 0mph
Humidity: 21%   Direction: NA
Pressure: 30.12"   Gusts: NA
Location:  39.7287°N, 119.26°W
Report Text: KRNO 280255Z 00000KT 10SM FEW210 13/M09 A3012 RMK AO2 SLP182 T01281094 58004
Loading
Personal Weather Stations






























Interactive Weather Map New forecast layout! Learn more

10-Day Weather Forecast

Advertisements
Track Severe Weather on mobile